Napa — WDE8110 — position and weather

sailwx.info

Track history (hours):
 
Tides and Currents Weather Stations Pressure Air Temp Water Temp Dewpoint Dewpoint Depression Visibility Wind Speed Wind Dir Waves Ship Positions

Napa

Owner: Golden Gate Bridge Hwy. and Transportation District, San Francisco, CA. More information available from US FCC via Universal Licensing System and Coast Guard Vessel Documentation Center.

Last reported at 2018-Apr-20 14:00 UTC. Time now 2018-Apr-20 14:28 UTC.
Position N 37°57' W 122°30'.

Length 38 m; draft 0.15 m.

Type: Passenger vessel. MMSI: 36677150.

Date/timePositionNaut miles runAvg speedWind from/ knotsBaromVisibWave heightAir tempDewpointWater temp
2018-Apr-20 14:00N 37°57' W 122°30'714.7
2018-Apr-20 13:31N 37°51' W 122°24'3 6.9
2018-Apr-20 13:01N 37°54' W 122°27'4 7.9
2018-Apr-20 12:30N 37°57' W 122°30'0 0.0
2018-Apr-20 02:51N 37°57' W 122°30'720.9
2018-Apr-20 02:30N 37°52' W 122°24'1 1.4
2018-Apr-20 02:01N 37°52' W 122°25'612.7
2018-Apr-20 01:30N 37°57' W 122°30'1020.6
2018-Apr-20 01:00N 37°48' W 122°24'5 9.4
2018-Apr-20 00:30N 37°52' W 122°25'612.1
2018-Apr-20 00:00N 37°57' W 122°30'1020.3
2018-Apr-19 23:30N 37°48' W 122°24'611.3
2018-Apr-19 23:01N 37°53' W 122°26'510.4
2018-Apr-19 22:30N 37°57' W 122°30'1020.9
2018-Apr-19 22:00N 37°48' W 122°24'816.1
2018-Apr-19 21:31N 37°55' W 122°28'3 5.6
2018-Apr-19 21:01N 37°57' W 122°31'0 0.0
2018-Apr-19 20:30N 37°57' W 122°31'0 0.0
2018-Apr-19 20:01N 37°57' W 122°31'1020.2
2018-Apr-19 19:30N 37°49' W 122°23'4 8.1
2018-Apr-19 19:01N 37°52' W 122°25'612.3
2018-Apr-19 18:30N 37°57' W 122°30'1020.3
2018-Apr-19 18:01N 37°48' W 122°23'4 8.0
2018-Apr-19 17:31N 37°52' W 122°25'612.5
2018-Apr-19 17:01N 37°57' W 122°30'4 8.2
2018-Apr-19 16:31N 37°54' W 122°26'713.5
2018-Apr-19 16:00N 37°48' W 122°24'1019.1
2018-Apr-19 15:30N 37°56' W 122°29'0 0.5
2018-Apr-19 15:01N 37°56' W 122°29'918.8
2018-Apr-19 14:31N 37°48' W 122°24'1020.9
2018-Apr-19 14:01N 37°57' W 122°30'714.9
2018-Apr-19 13:31N 37°51' W 122°24'4 7.8
2018-Apr-19 13:01N 37°54' W 122°27'4 7.3
2018-Apr-19 12:30N 37°57' W 122°30'0 0.0
2018-Apr-19 02:49N 37°57' W 122°30'721.9
2018-Apr-19 02:31N 37°52' W 122°24'1 1.9
2018-Apr-19 02:01N 37°52' W 122°25'612.0
2018-Apr-19 01:30N 37°57' W 122°30'1020.0
2018-Apr-19 00:59N 37°48' W 122°24'510.9
2018-Apr-19 00:31N 37°53' W 122°26'611.1
2018-Apr-19 00:00N 37°57' W 122°30'1020.9
2018-Apr-18 23:30N 37°48' W 122°24'510.8
2018-Apr-18 23:01N 37°53' W 122°26'510.7
2018-Apr-18 22:30N 37°57' W 122°30'1020.8
2018-Apr-18 22:00N 37°48' W 122°24'918.3
2018-Apr-18 21:31N 37°56' W 122°29'2 3.3
2018-Apr-18 21:00N 37°57' W 122°31'0 0.0
2018-Apr-18 20:30N 37°57' W 122°31'0 0.0
2018-Apr-18 20:00N 37°57' W 122°31'0 0.0
2018-Apr-18 19:30N 37°57' W 122°31'0 0.0
2018-Apr-18 19:00N 37°57' W 122°31'0 0.0
2018-Apr-18 18:30N 37°57' W 122°31'0 0.0
2018-Apr-18 18:00N 37°57' W 122°31'0 0.1
2018-Apr-18 17:30N 37°57' W 122°30'0 0.1
2018-Apr-18 17:00N 37°57' W 122°31'1021.0
2018-Apr-18 16:31N 37°48' W 122°23'1019.0
2018-Apr-18 16:00N 37°56' W 122°29'0 0.3
2018-Apr-18 15:30N 37°56' W 122°30'1019.4
2018-Apr-18 15:01N 37°48' W 122°24'1020.7
2018-Apr-18 14:30N 37°57' W 122°30'0 0.1
2018-Apr-18 14:00N 37°57' W 122°31'0 0.0
2018-Apr-18 01:24N 37°57' W 122°31'0 0.2
2018-Apr-18 01:00N 37°57' W 122°30'1020.6
2018-Apr-18 00:30N 37°48' W 122°23'1 1.5
2018-Apr-18 00:01N 37°49' W 122°23'1019.4
2018-Apr-17 23:30N 37°57' W 122°30'1020.9
2018-Apr-17 23:00N 37°48' W 122°24'0 0.9
2018-Apr-17 22:30N 37°48' W 122°24'1019.9
2018-Apr-17 22:00N 37°57' W 122°30'0 0.4
2018-Apr-17 21:30N 37°57' W 122°31'0 0.0
2018-Apr-17 21:00N 37°57' W 122°31'0 0.0
2018-Apr-17 20:30N 37°57' W 122°31'0 0.0
2018-Apr-17 20:00N 37°57' W 122°31'0 0.0
2018-Apr-17 19:30N 37°57' W 122°31'0 0.0
2018-Apr-17 19:00N 37°57' W 122°31'0 0.0
2018-Apr-17 18:30N 37°57' W 122°31'0 0.0
2018-Apr-17 18:00N 37°57' W 122°31'0 0.0
2018-Apr-17 17:30N 37°57' W 122°31'0 0.0
2018-Apr-17 17:00N 37°57' W 122°31'1120.9
2018-Apr-17 16:30N 37°48' W 122°24'1019.4
2018-Apr-17 16:00N 37°56' W 122°30'1 2.8
2018-Apr-17 15:30N 37°56' W 122°28'916.8
2018-Apr-17 15:00N 37°48' W 122°24'1021.4
2018-Apr-17 14:31N 37°57' W 122°30'0 0.1
2018-Apr-17 14:00N 37°57' W 122°31'0 0.0
2018-Apr-17 01:12N 37°57' W 122°31'0 0.4
2018-Apr-17 01:00N 37°57' W 122°30'1020.0
2018-Apr-17 00:31N 37°49' W 122°23'0 0.6
2018-Apr-17 00:00N 37°49' W 122°23'1019.2
2018-Apr-16 23:30N 37°57' W 122°30'1021.0
2018-Apr-16 23:00N 37°48' W 122°24'1 1.3
2018-Apr-16 22:31N 37°48' W 122°23'1020.1
2018-Apr-16 22:00N 37°57' W 122°31'0 0.0
2018-Apr-16 21:30N 37°57' W 122°31'0 0.0
2018-Apr-16 21:00N 37°57' W 122°31'0 0.0
2018-Apr-16 20:30N 37°57' W 122°31'0 0.0
2018-Apr-16 20:00N 37°57' W 122°31'0 0.0
2018-Apr-16 19:30N 37°57' W 122°31'0 0.0
2018-Apr-16 19:00N 37°57' W 122°31'0 0.0
2018-Apr-16 18:31N 37°57' W 122°31'0 0.0
2018-Apr-16 18:00N 37°57' W 122°31'0 0.0
2018-Apr-16 17:30N 37°57' W 122°31'0 0.1
2018-Apr-16 17:01N 37°57' W 122°30'1020.8
2018-Apr-16 16:30N 37°48' W 122°24'1019.4
2018-Apr-16 16:00N 37°56' W 122°30'2 3.5
2018-Apr-16 15:31N 37°56' W 122°28'816.6
2018-Apr-16 15:00N 37°48' W 122°24'1020.8
2018-Apr-16 14:30N 37°57' W 122°30'0 0.2
2018-Apr-16 14:00N 37°57' W 122°31'  
2018-Apr-14 02:50N 37°56' W 122°30'825.8
2018-Apr-14 02:31N 37°50' W 122°23'3 7.0
2018-Apr-14 02:00N 37°53' W 122°26'611.1
2018-Apr-14 01:31N 37°57' W 122°30'1020.4
2018-Apr-14 01:00N 37°48' W 122°24'714.0
2018-Apr-14 00:30N 37°54' W 122°27'3 6.7
2018-Apr-14 00:00N 37°56' W 122°30'1019.8
2018-Apr-13 23:30N 37°48' W 122°24'611.4
2018-Apr-13 23:00N 37°53' W 122°26'510.1
2018-Apr-13 22:31N 37°57' W 122°30'1020.7
2018-Apr-13 22:00N 37°48' W 122°24'918.3
2018-Apr-13 21:31N 37°56' W 122°29'2 3.2
2018-Apr-13 21:00N 37°57' W 122°30'0 0.0
2018-Apr-13 20:30N 37°57' W 122°30'0 0.0
2018-Apr-13 20:01N 37°57' W 122°30'1020.3
2018-Apr-13 19:30N 37°49' W 122°23'4 8.0
2018-Apr-13 19:01N 37°52' W 122°25'612.6
2018-Apr-13 18:30N 37°57' W 122°30'1020.7
2018-Apr-13 18:00N 37°48' W 122°23'4 8.9
2018-Apr-13 17:30N 37°52' W 122°25'612.0
2018-Apr-13 17:00N 37°57' W 122°30'3 7.0
2018-Apr-13 16:30N 37°55' W 122°27'714.9
2018-Apr-13 16:00N 37°48' W 122°24'1019.3
2018-Apr-13 15:30N 37°56' W 122°30'0 0.5
2018-Apr-13 15:00N 37°56' W 122°29'918.9
2018-Apr-13 14:30N 37°48' W 122°24'1020.6
2018-Apr-13 14:00N 37°57' W 122°30'917.6
2018-Apr-13 13:30N 37°50' W 122°24'612.2
2018-Apr-13 13:01N 37°55' W 122°28'3 5.6
2018-Apr-13 12:30N 37°57' W 122°30'0 0.0
2018-Apr-13 12:00N 37°57' W 122°30'0 0.0
2018-Apr-13 11:30N 37°57' W 122°30'0 0.0
2018-Apr-13 11:00N 37°57' W 122°30'0 0.0
2018-Apr-13 10:30N 37°57' W 122°30'0 0.0
2018-Apr-13 09:58N 37°57' W 122°30'0 0.0
2018-Apr-13 09:30N 37°57' W 122°30'0 0.0
2018-Apr-13 09:00N 37°57' W 122°30'0 0.0
2018-Apr-13 08:30N 37°57' W 122°30'0 0.0
2018-Apr-13 08:00N 37°57' W 122°30'0 0.0
2018-Apr-13 07:30N 37°57' W 122°30'0 0.0
2018-Apr-13 07:00N 37°57' W 122°30'0 0.0
2018-Apr-13 06:30N 37°57' W 122°30'0 0.0
2018-Apr-13 06:00N 37°57' W 122°30'0 0.0
2018-Apr-13 05:30N 37°57' W 122°30'0 0.0
2018-Apr-13 05:00N 37°57' W 122°30'0 0.0
2018-Apr-13 04:30N 37°57' W 122°30'0 0.0
2018-Apr-13 04:00N 37°57' W 122°30'0 0.0
2018-Apr-13 03:30N 37°57' W 122°30'0 0.0
2018-Apr-13 03:00N 37°57' W 122°30'817.2
2018-Apr-13 02:31N 37°50' W 122°23'4 7.4
2018-Apr-13 02:00N 37°53' W 122°26'4 8.3
2018-Apr-13 01:30N 37°56' W 122°30'1020.4
2018-Apr-13 01:00N 37°48' W 122°24'611.3
2018-Apr-13 00:30N 37°53' W 122°26'5 9.8
2018-Apr-13 00:00N 37°57' W 122°30'1020.7
2018-Apr-12 23:30N 37°48' W 122°24'510.7
2018-Apr-12 23:00N 37°53' W 122°26'510.6
2018-Apr-12 22:31N 37°57' W 122°30'1020.7
2018-Apr-12 22:00N 37°48' W 122°24'917.8
2018-Apr-12 21:30N 37°56' W 122°28'2 3.7
2018-Apr-12 21:00N 37°57' W 122°30'0 0.0
2018-Apr-12 20:30N 37°57' W 122°30'0 0.0
2018-Apr-12 20:00N 37°57' W 122°30'1020.2
2018-Apr-12 19:30N 37°49' W 122°23'3 6.2
2018-Apr-12 19:01N 37°51' W 122°25'714.0
2018-Apr-12 18:30N 37°57' W 122°30'1020.4
2018-Apr-12 18:01N 37°48' W 122°23'4 8.0
2018-Apr-12 17:30N 37°52' W 122°25'612.3
2018-Apr-12 17:00N 37°57' W 122°30'4 7.4
2018-Apr-12 16:30N 37°55' W 122°27'714.6
2018-Apr-12 16:00N 37°48' W 122°24'1019.5
2018-Apr-12 15:30N 37°56' W 122°30'0 0.9
2018-Apr-12 15:01N 37°56' W 122°29'918.9
2018-Apr-12 14:31N 37°48' W 122°24'1020.8
2018-Apr-12 14:00N 37°57' W 122°30'816.4
2018-Apr-12 13:30N 37°51' W 122°24'5 9.2
2018-Apr-12 13:01N 37°54' W 122°27'4 7.3
2018-Apr-12 12:30N 37°57' W 122°30'0 0.0
2018-Apr-12 02:48N 37°57' W 122°30'725.3
2018-Apr-12 02:31N 37°51' W 122°24'2 3.2
2018-Apr-12 02:00N 37°53' W 122°25'611.1
2018-Apr-12 01:30N 37°57' W 122°30'1020.5
2018-Apr-12 01:00N 37°48' W 122°24'510.4
2018-Apr-12 00:30N 37°53' W 122°26'510.9
2018-Apr-12 00:00N 37°57' W 122°30'1021.0
2018-Apr-11 23:30N 37°48' W 122°24'3 5.8
2018-Apr-11 23:01N 37°51' W 122°25'815.0
2018-Apr-11 22:30N 37°57' W 122°30'1020.7
2018-Apr-11 22:00N 37°48' W 122°24'815.8
2018-Apr-11 21:30N 37°55' W 122°27'3 5.6
2018-Apr-11 20:58N 37°57' W 122°30'0 0.0
2018-Apr-11 20:30N 37°57' W 122°30'0 0.0
2018-Apr-11 20:00N 37°57' W 122°30'1019.3
2018-Apr-11 19:30N 37°49' W 122°23'3 5.9
2018-Apr-11 19:01N 37°52' W 122°25'713.4
2018-Apr-11 18:30N 37°57' W 122°30'1020.4
2018-Apr-11 18:01N 37°48' W 122°23'4 7.1
2018-Apr-11 17:31N 37°52' W 122°25'713.1
2018-Apr-11 17:00N 37°57' W 122°30'4 7.1
2018-Apr-11 16:30N 37°55' W 122°27'714.7
2018-Apr-11 16:00N 37°48' W 122°24'919.0
2018-Apr-11 15:30N 37°56' W 122°29'0 0.2
2018-Apr-11 15:00N 37°56' W 122°29'918.6
2018-Apr-11 14:30N 37°48' W 122°23'1020.9
2018-Apr-11 14:00N 37°57' W 122°30'917.5
2018-Apr-11 13:31N 37°50' W 122°24'5 9.2
2018-Apr-11 13:00N 37°54' W 122°27'4 0.7
2018-Apr-11 07:15N 37°57' W 122°30'520.3
2018-Apr-11 07:00N 37°53' W 122°26'714.0
2018-Apr-11 06:31N 37°47' W 122°23'0 1.0
2018-Apr-11 06:00N 37°47' W 122°23'1 1.9
2018-Apr-11 05:31N 37°48' W 122°24'0 0.0
2018-Apr-11 05:00N 37°48' W 122°24'0 0.0
2018-Apr-11 04:30N 37°48' W 122°24'0 0.0
2018-Apr-11 04:01N 37°48' W 122°24'0 0.0
2018-Apr-11 03:31N 37°48' W 122°24'0 0.0
2018-Apr-11 03:00N 37°48' W 122°24'0 0.0
2018-Apr-11 02:30N 37°48' W 122°24'1 2.3
2018-Apr-11 02:00N 37°47' W 122°23'714.4
2018-Apr-11 01:31N 37°53' W 122°26'4 8.7
2018-Apr-11 01:00N 37°57' W 122°30'1020.5
2018-Apr-11 00:30N 37°48' W 122°24'2 3.4
2018-Apr-11 00:00N 37°49' W 122°24'917.9
2018-Apr-10 23:30N 37°57' W 122°30'1020.6
2018-Apr-10 23:00N 37°48' W 122°24'511.0
2018-Apr-10 22:31N 37°53' W 122°26'510.6
2018-Apr-10 22:00N 37°57' W 122°31'0 0.0
2018-Apr-10 21:31N 37°57' W 122°31'0 0.0
2018-Apr-10 21:00N 37°57' W 122°31'0 0.0
2018-Apr-10 20:30N 37°57' W 122°31'0 0.0
2018-Apr-10 20:00N 37°57' W 122°31'0 0.0
2018-Apr-10 19:30N 37°57' W 122°31'0 0.0
2018-Apr-10 18:58N 37°57' W 122°31'0 0.1
2018-Apr-10 18:30N 37°57' W 122°31'0 0.0
2018-Apr-10 18:00N 37°57' W 122°31'0 0.0
2018-Apr-10 17:30N 37°57' W 122°31'1 3.0
2018-Apr-10 17:00N 37°56' W 122°29'918.6
2018-Apr-10 16:30N 37°48' W 122°23'918.5
2018-Apr-10 16:01N 37°56' W 122°29'1 2.3
2018-Apr-10 15:30N 37°56' W 122°30'1020.2
2018-Apr-10 15:00N 37°48' W 122°24'1020.8
2018-Apr-10 14:30N 37°57' W 122°30'  
Track history (hours):
 
Tides and Currents Weather Stations Pressure Air Temp Water Temp Dewpoint Dewpoint Depression Visibility Wind Speed Wind Dir Waves Ship Positions

Napa

Owner: Golden Gate Bridge Hwy. and Transportation District, San Francisco, CA. More information available from US FCC via Universal Licensing System and Coast Guard Vessel Documentation Center.

Last reported at 2018-Apr-20 14:00 UTC. Time now 2018-Apr-20 14:28 UTC.
Position N 37°57' W 122°30'.

Length 38 m; draft 0.15 m.

Type: Passenger vessel. MMSI: 36677150.

Date/timePositionNaut miles runAvg speedWind from/ knotsBaromVisibWave heightAir tempDewpointWater temp
2018-Apr-20 14:00N 37°57' W 122°30'714.7
2018-Apr-20 13:31N 37°51' W 122°24'3 6.9
2018-Apr-20 13:01N 37°54' W 122°27'4 7.9
2018-Apr-20 12:30N 37°57' W 122°30'0 0.0
2018-Apr-20 02:51N 37°57' W 122°30'720.9
2018-Apr-20 02:30N 37°52' W 122°24'1 1.4
2018-Apr-20 02:01N 37°52' W 122°25'612.7
2018-Apr-20 01:30N 37°57' W 122°30'1020.6
2018-Apr-20 01:00N 37°48' W 122°24'5 9.4
2018-Apr-20 00:30N 37°52' W 122°25'612.1
2018-Apr-20 00:00N 37°57' W 122°30'1020.3
2018-Apr-19 23:30N 37°48' W 122°24'611.3
2018-Apr-19 23:01N 37°53' W 122°26'510.4
2018-Apr-19 22:30N 37°57' W 122°30'1020.9
2018-Apr-19 22:00N 37°48' W 122°24'816.1
2018-Apr-19 21:31N 37°55' W 122°28'3 5.6
2018-Apr-19 21:01N 37°57' W 122°31'0 0.0
2018-Apr-19 20:30N 37°57' W 122°31'0 0.0
2018-Apr-19 20:01N 37°57' W 122°31'1020.2
2018-Apr-19 19:30N 37°49' W 122°23'4 8.1
2018-Apr-19 19:01N 37°52' W 122°25'612.3
2018-Apr-19 18:30N 37°57' W 122°30'1020.3
2018-Apr-19 18:01N 37°48' W 122°23'4 8.0
2018-Apr-19 17:31N 37°52' W 122°25'612.5
2018-Apr-19 17:01N 37°57' W 122°30'4 8.2
2018-Apr-19 16:31N 37°54' W 122°26'713.5
2018-Apr-19 16:00N 37°48' W 122°24'1019.1
2018-Apr-19 15:30N 37°56' W 122°29'0 0.5
2018-Apr-19 15:01N 37°56' W 122°29'918.8
2018-Apr-19 14:31N 37°48' W 122°24'1020.9
2018-Apr-19 14:01N 37°57' W 122°30'714.9
2018-Apr-19 13:31N 37°51' W 122°24'4 7.8
2018-Apr-19 13:01N 37°54' W 122°27'4 7.3
2018-Apr-19 12:30N 37°57' W 122°30'0 0.0
2018-Apr-19 02:49N 37°57' W 122°30'721.9
2018-Apr-19 02:31N 37°52' W 122°24'1 1.9
2018-Apr-19 02:01N 37°52' W 122°25'612.0
2018-Apr-19 01:30N 37°57' W 122°30'1020.0
2018-Apr-19 00:59N 37°48' W 122°24'510.9
2018-Apr-19 00:31N 37°53' W 122°26'611.1
2018-Apr-19 00:00N 37°57' W 122°30'1020.9
2018-Apr-18 23:30N 37°48' W 122°24'510.8
2018-Apr-18 23:01N 37°53' W 122°26'510.7
2018-Apr-18 22:30N 37°57' W 122°30'1020.8
2018-Apr-18 22:00N 37°48' W 122°24'918.3
2018-Apr-18 21:31N 37°56' W 122°29'2 3.3
2018-Apr-18 21:00N 37°57' W 122°31'0 0.0
2018-Apr-18 20:30N 37°57' W 122°31'0 0.0
2018-Apr-18 20:00N 37°57' W 122°31'0 0.0
2018-Apr-18 19:30N 37°57' W 122°31'0 0.0
2018-Apr-18 19:00N 37°57' W 122°31'0 0.0
2018-Apr-18 18:30N 37°57' W 122°31'0 0.0
2018-Apr-18 18:00N 37°57' W 122°31'0 0.1
2018-Apr-18 17:30N 37°57' W 122°30'0 0.1
2018-Apr-18 17:00N 37°57' W 122°31'1021.0
2018-Apr-18 16:31N 37°48' W 122°23'1019.0
2018-Apr-18 16:00N 37°56' W 122°29'0 0.3
2018-Apr-18 15:30N 37°56' W 122°30'1019.4
2018-Apr-18 15:01N 37°48' W 122°24'1020.7
2018-Apr-18 14:30N 37°57' W 122°30'0 0.1
2018-Apr-18 14:00N 37°57' W 122°31'0 0.0
2018-Apr-18 01:24N 37°57' W 122°31'0 0.2
2018-Apr-18 01:00N 37°57' W 122°30'1020.6
2018-Apr-18 00:30N 37°48' W 122°23'1 1.5
2018-Apr-18 00:01N 37°49' W 122°23'1019.4
2018-Apr-17 23:30N 37°57' W 122°30'1020.9
2018-Apr-17 23:00N 37°48' W 122°24'0 0.9
2018-Apr-17 22:30N 37°48' W 122°24'1019.9
2018-Apr-17 22:00N 37°57' W 122°30'0 0.4
2018-Apr-17 21:30N 37°57' W 122°31'0 0.0
2018-Apr-17 21:00N 37°57' W 122°31'0 0.0
2018-Apr-17 20:30N 37°57' W 122°31'0 0.0
2018-Apr-17 20:00N 37°57' W 122°31'0 0.0
2018-Apr-17 19:30N 37°57' W 122°31'0 0.0
2018-Apr-17 19:00N 37°57' W 122°31'0 0.0
2018-Apr-17 18:30N 37°57' W 122°31'0 0.0
2018-Apr-17 18:00N 37°57' W 122°31'0 0.0
2018-Apr-17 17:30N 37°57' W 122°31'0 0.0
2018-Apr-17 17:00N 37°57' W 122°31'1120.9
2018-Apr-17 16:30N 37°48' W 122°24'1019.4
2018-Apr-17 16:00N 37°56' W 122°30'1 2.8
2018-Apr-17 15:30N 37°56' W 122°28'916.8
2018-Apr-17 15:00N 37°48' W 122°24'1021.4
2018-Apr-17 14:31N 37°57' W 122°30'0 0.1
2018-Apr-17 14:00N 37°57' W 122°31'0 0.0
2018-Apr-17 01:12N 37°57' W 122°31'0 0.4
2018-Apr-17 01:00N 37°57' W 122°30'1020.0
2018-Apr-17 00:31N 37°49' W 122°23'0 0.6
2018-Apr-17 00:00N 37°49' W 122°23'1019.2
2018-Apr-16 23:30N 37°57' W 122°30'1021.0
2018-Apr-16 23:00N 37°48' W 122°24'1 1.3
2018-Apr-16 22:31N 37°48' W 122°23'1020.1
2018-Apr-16 22:00N 37°57' W 122°31'0 0.0
2018-Apr-16 21:30N 37°57' W 122°31'0 0.0
2018-Apr-16 21:00N 37°57' W 122°31'0 0.0
2018-Apr-16 20:30N 37°57' W 122°31'0 0.0
2018-Apr-16 20:00N 37°57' W 122°31'0 0.0
2018-Apr-16 19:30N 37°57' W 122°31'0 0.0
2018-Apr-16 19:00N 37°57' W 122°31'0 0.0
2018-Apr-16 18:31N 37°57' W 122°31'0 0.0
2018-Apr-16 18:00N 37°57' W 122°31'0 0.0
2018-Apr-16 17:30N 37°57' W 122°31'0 0.1
2018-Apr-16 17:01N 37°57' W 122°30'1020.8
2018-Apr-16 16:30N 37°48' W 122°24'1019.4
2018-Apr-16 16:00N 37°56' W 122°30'2 3.5
2018-Apr-16 15:31N 37°56' W 122°28'816.6
2018-Apr-16 15:00N 37°48' W 122°24'1020.8
2018-Apr-16 14:30N 37°57' W 122°30'0 0.2
2018-Apr-16 14:00N 37°57' W 122°31'  
2018-Apr-14 02:50N 37°56' W 122°30'825.8
2018-Apr-14 02:31N 37°50' W 122°23'3 7.0
2018-Apr-14 02:00N 37°53' W 122°26'611.1
2018-Apr-14 01:31N 37°57' W 122°30'1020.4
2018-Apr-14 01:00N 37°48' W 122°24'714.0
2018-Apr-14 00:30N 37°54' W 122°27'3 6.7
2018-Apr-14 00:00N 37°56' W 122°30'1019.8
2018-Apr-13 23:30N 37°48' W 122°24'611.4
2018-Apr-13 23:00N 37°53' W 122°26'510.1
2018-Apr-13 22:31N 37°57' W 122°30'1020.7
2018-Apr-13 22:00N 37°48' W 122°24'918.3
2018-Apr-13 21:31N 37°56' W 122°29'2 3.2
2018-Apr-13 21:00N 37°57' W 122°30'0 0.0
2018-Apr-13 20:30N 37°57' W 122°30'0 0.0
2018-Apr-13 20:01N 37°57' W 122°30'1020.3
2018-Apr-13 19:30N 37°49' W 122°23'4 8.0
2018-Apr-13 19:01N 37°52' W 122°25'612.6
2018-Apr-13 18:30N 37°57' W 122°30'1020.7
2018-Apr-13 18:00N 37°48' W 122°23'4 8.9
2018-Apr-13 17:30N 37°52' W 122°25'612.0
2018-Apr-13 17:00N 37°57' W 122°30'3 7.0
2018-Apr-13 16:30N 37°55' W 122°27'714.9
2018-Apr-13 16:00N 37°48' W 122°24'1019.3
2018-Apr-13 15:30N 37°56' W 122°30'0 0.5
2018-Apr-13 15:00N 37°56' W 122°29'918.9
2018-Apr-13 14:30N 37°48' W 122°24'1020.6
2018-Apr-13 14:00N 37°57' W 122°30'917.6
2018-Apr-13 13:30N 37°50' W 122°24'612.2
2018-Apr-13 13:01N 37°55' W 122°28'3 5.6
2018-Apr-13 12:30N 37°57' W 122°30'0 0.0
2018-Apr-13 12:00N 37°57' W 122°30'0 0.0
2018-Apr-13 11:30N 37°57' W 122°30'0 0.0
2018-Apr-13 11:00N 37°57' W 122°30'0 0.0
2018-Apr-13 10:30N 37°57' W 122°30'0 0.0
2018-Apr-13 09:58N 37°57' W 122°30'0 0.0
2018-Apr-13 09:30N 37°57' W 122°30'0 0.0
2018-Apr-13 09:00N 37°57' W 122°30'0 0.0
2018-Apr-13 08:30N 37°57' W 122°30'0 0.0
2018-Apr-13 08:00N 37°57' W 122°30'0 0.0
2018-Apr-13 07:30N 37°57' W 122°30'0 0.0
2018-Apr-13 07:00N 37°57' W 122°30'0 0.0
2018-Apr-13 06:30N 37°57' W 122°30'0 0.0
2018-Apr-13 06:00N 37°57' W 122°30'0 0.0
2018-Apr-13 05:30N 37°57' W 122°30'0 0.0
2018-Apr-13 05:00N 37°57' W 122°30'0 0.0
2018-Apr-13 04:30N 37°57' W 122°30'0 0.0
2018-Apr-13 04:00N 37°57' W 122°30'0 0.0
2018-Apr-13 03:30N 37°57' W 122°30'0 0.0
2018-Apr-13 03:00N 37°57' W 122°30'817.2
2018-Apr-13 02:31N 37°50' W 122°23'4 7.4
2018-Apr-13 02:00N 37°53' W 122°26'4 8.3
2018-Apr-13 01:30N 37°56' W 122°30'1020.4
2018-Apr-13 01:00N 37°48' W 122°24'611.3
2018-Apr-13 00:30N 37°53' W 122°26'5 9.8
2018-Apr-13 00:00N 37°57' W 122°30'1020.7
2018-Apr-12 23:30N 37°48' W 122°24'510.7
2018-Apr-12 23:00N 37°53' W 122°26'510.6
2018-Apr-12 22:31N 37°57' W 122°30'1020.7
2018-Apr-12 22:00N 37°48' W 122°24'917.8
2018-Apr-12 21:30N 37°56' W 122°28'2 3.7
2018-Apr-12 21:00N 37°57' W 122°30'0 0.0
2018-Apr-12 20:30N 37°57' W 122°30'0 0.0
2018-Apr-12 20:00N 37°57' W 122°30'1020.2
2018-Apr-12 19:30N 37°49' W 122°23'3 6.2
2018-Apr-12 19:01N 37°51' W 122°25'714.0
2018-Apr-12 18:30N 37°57' W 122°30'1020.4
2018-Apr-12 18:01N 37°48' W 122°23'4 8.0
2018-Apr-12 17:30N 37°52' W 122°25'612.3
2018-Apr-12 17:00N 37°57' W 122°30'4 7.4
2018-Apr-12 16:30N 37°55' W 122°27'714.6
2018-Apr-12 16:00N 37°48' W 122°24'1019.5
2018-Apr-12 15:30N 37°56' W 122°30'0 0.9
2018-Apr-12 15:01N 37°56' W 122°29'918.9
2018-Apr-12 14:31N 37°48' W 122°24'1020.8
2018-Apr-12 14:00N 37°57' W 122°30'816.4
2018-Apr-12 13:30N 37°51' W 122°24'5 9.2
2018-Apr-12 13:01N 37°54' W 122°27'4 7.3
2018-Apr-12 12:30N 37°57' W 122°30'0 0.0
2018-Apr-12 02:48N 37°57' W 122°30'725.3
2018-Apr-12 02:31N 37°51' W 122°24'2 3.2
2018-Apr-12 02:00N 37°53' W 122°25'611.1
2018-Apr-12 01:30N 37°57' W 122°30'1020.5
2018-Apr-12 01:00N 37°48' W 122°24'510.4
2018-Apr-12 00:30N 37°53' W 122°26'510.9
2018-Apr-12 00:00N 37°57' W 122°30'1021.0
2018-Apr-11 23:30N 37°48' W 122°24'3 5.8
2018-Apr-11 23:01N 37°51' W 122°25'815.0
2018-Apr-11 22:30N 37°57' W 122°30'1020.7
2018-Apr-11 22:00N 37°48' W 122°24'815.8
2018-Apr-11 21:30N 37°55' W 122°27'3 5.6
2018-Apr-11 20:58N 37°57' W 122°30'0 0.0
2018-Apr-11 20:30N 37°57' W 122°30'0 0.0
2018-Apr-11 20:00N 37°57' W 122°30'1019.3
2018-Apr-11 19:30N 37°49' W 122°23'3 5.9
2018-Apr-11 19:01N 37°52' W 122°25'713.4
2018-Apr-11 18:30N 37°57' W 122°30'1020.4
2018-Apr-11 18:01N 37°48' W 122°23'4 7.1
2018-Apr-11 17:31N 37°52' W 122°25'713.1
2018-Apr-11 17:00N 37°57' W 122°30'4 7.1
2018-Apr-11 16:30N 37°55' W 122°27'714.7
2018-Apr-11 16:00N 37°48' W 122°24'919.0
2018-Apr-11 15:30N 37°56' W 122°29'0 0.2
2018-Apr-11 15:00N 37°56' W 122°29'918.6
2018-Apr-11 14:30N 37°48' W 122°23'1020.9
2018-Apr-11 14:00N 37°57' W 122°30'917.5
2018-Apr-11 13:31N 37°50' W 122°24'5 9.2
2018-Apr-11 13:00N 37°54' W 122°27'4 0.7
2018-Apr-11 07:15N 37°57' W 122°30'520.3
2018-Apr-11 07:00N 37°53' W 122°26'714.0
2018-Apr-11 06:31N 37°47' W 122°23'0 1.0
2018-Apr-11 06:00N 37°47' W 122°23'1 1.9
2018-Apr-11 05:31N 37°48' W 122°24'0 0.0
2018-Apr-11 05:00N 37°48' W 122°24'0 0.0
2018-Apr-11 04:30N 37°48' W 122°24'0 0.0
2018-Apr-11 04:01N 37°48' W 122°24'0 0.0
2018-Apr-11 03:31N 37°48' W 122°24'0 0.0
2018-Apr-11 03:00N 37°48' W 122°24'0 0.0
2018-Apr-11 02:30N 37°48' W 122°24'1 2.3
2018-Apr-11 02:00N 37°47' W 122°23'714.4
2018-Apr-11 01:31N 37°53' W 122°26'4 8.7
2018-Apr-11 01:00N 37°57' W 122°30'1020.5
2018-Apr-11 00:30N 37°48' W 122°24'2 3.4
2018-Apr-11 00:00N 37°49' W 122°24'917.9
2018-Apr-10 23:30N 37°57' W 122°30'1020.6
2018-Apr-10 23:00N 37°48' W 122°24'511.0
2018-Apr-10 22:31N 37°53' W 122°26'510.6
2018-Apr-10 22:00N 37°57' W 122°31'0 0.0
2018-Apr-10 21:31N 37°57' W 122°31'0 0.0
2018-Apr-10 21:00N 37°57' W 122°31'0 0.0
2018-Apr-10 20:30N 37°57' W 122°31'0 0.0
2018-Apr-10 20:00N 37°57' W 122°31'0 0.0
2018-Apr-10 19:30N 37°57' W 122°31'0 0.0
2018-Apr-10 18:58N 37°57' W 122°31'0 0.1
2018-Apr-10 18:30N 37°57' W 122°31'0 0.0
2018-Apr-10 18:00N 37°57' W 122°31'0 0.0
2018-Apr-10 17:30N 37°57' W 122°31'1 3.0
2018-Apr-10 17:00N 37°56' W 122°29'918.6
2018-Apr-10 16:30N 37°48' W 122°23'918.5
2018-Apr-10 16:01N 37°56' W 122°29'1 2.3
2018-Apr-10 15:30N 37°56' W 122°30'1020.2
2018-Apr-10 15:00N 37°48' W 122°24'1020.8
2018-Apr-10 14:30N 37°57' W 122°30'  

Dump ship's entire track history